Time;durP1;ratioP1;P1;durP2;ratioP2;P2;SDS_P1;SDS_P2;PMS_P1;PMS_P2;Temp;Humidity;BMP_temperature;BMP_pressure;BME280_temperature;BME280_humidity;BME280_pressure;Samples;Min_cycle;Max_cycle;Signal;HPM_P1;HPM_P2
2022/06/07 00:01:14;;;;;;;14.15;3.90;;;;;;;;;;4983655;28;20066;-79
2022/06/07 00:03:40;;;;;;;13.98;4.13;;;;;;;;;;4967752;28;20059;-75
2022/06/07 00:06:07;;;;;;;12.15;3.92;;;;;;;;;;4967053;28;20055;-75
2022/06/07 00:08:33;;;;;;;10.70;3.83;;;;;;;;;;4966517;28;20215;-76
2022/06/07 00:10:59;;;;;;;12.38;3.78;;;;;;;;;;4966521;28;20051;-75
2022/06/07 00:13:25;;;;;;;12.13;4.15;;;;;;;;;;4966939;28;20295;-72
2022/06/07 00:15:51;;;;;;;13.68;4.10;;;;;;;;;;4963718;28;20081;-73
2022/06/07 00:18:17;;;;;;;15.25;4.43;;;;;;;;;;4964226;28;20571;-73
2022/06/07 00:20:44;;;;;;;13.73;4.28;;;;;;;;;;4964256;28;20055;-75
2022/06/07 00:23:12;;;;;;;11.55;3.97;;;;;;;;;;4965967;28;20504;-75
2022/06/07 00:25:39;;;;;;;12.13;4.10;;;;;;;;;;4962962;28;20180;-75
2022/06/07 00:28:06;;;;;;;12.73;3.90;;;;;;;;;;4968597;28;20051;-73
2022/06/07 00:30:32;;;;;;;13.75;4.45;;;;;;;;;;4965935;28;20047;-74
2022/06/07 00:32:58;;;;;;;15.82;4.75;;;;;;;;;;4962503;28;20481;-74
2022/06/07 00:35:25;;;;;;;10.32;4.28;;;;;;;;;;4958004;28;20432;-74
2022/06/07 00:37:51;;;;;;;12.23;4.47;;;;;;;;;;4961619;28;20054;-74
2022/06/07 00:40:17;;;;;;;10.52;5.28;;;;;;;;;;4963809;28;20058;-73
2022/06/07 00:42:43;;;;;;;12.60;4.63;;;;;;;;;;4964160;28;20074;-75
2022/06/07 00:45:14;;;;;;;16.13;4.63;;;;;;;;;;4963099;28;20055;-77
2022/06/07 00:47:40;;;;;;;14.40;4.50;;;;;;;;;;4965047;28;20165;-74
2022/06/07 00:50:24;;;;;;;12.18;4.80;;;;;;;;;;4960903;28;20058;-74
2022/06/07 00:52:50;;;;;;;13.57;4.85;;;;;;;;;;4959677;28;20141;-74
2022/06/07 00:55:17;;;;;;;11.10;4.60;;;;;;;;;;4965475;28;20070;-75
2022/06/07 00:57:43;;;;;;;12.90;4.72;;;;;;;;;;4961587;28;20078;-74
2022/06/07 01:00:12;;;;;;;14.18;5.15;;;;;;;;;;4965392;28;20150;-74
2022/06/07 01:02:38;;;;;;;20.00;5.35;;;;;;;;;;4967031;28;20062;-76
2022/06/07 01:05:05;;;;;;;14.90;5.07;;;;;;;;;;4962268;28;20077;-74
2022/06/07 01:12:59;;;;;;;;;;;;;;;;;;4966131;28;20578;-74
2022/06/07 01:15:25;;;;;;;13.93;4.63;;;;;;;;;;4964638;28;20021;-73
2022/06/07 01:17:51;;;;;;;15.57;6.95;;;;;;;;;;4964299;28;20050;-73
2022/06/07 01:20:17;;;;;;;12.15;5.18;;;;;;;;;;4968735;28;20051;-74
2022/06/07 01:22:43;;;;;;;18.02;4.97;;;;;;;;;;4968097;28;20053;-72
2022/06/07 01:25:09;;;;;;;11.20;4.72;;;;;;;;;;4965124;28;20054;-74
2022/06/07 01:27:35;;;;;;;10.07;4.57;;;;;;;;;;4969506;28;20078;-74
2022/06/07 01:30:03;;;;;;;14.75;5.55;;;;;;;;;;4970392;28;20078;-75
2022/06/07 01:32:29;;;;;;;17.30;5.15;;;;;;;;;;4969152;28;20051;-73
2022/06/07 01:34:55;;;;;;;16.83;5.85;;;;;;;;;;4968217;28;20039;-74
2022/06/07 01:37:21;;;;;;;21.20;5.80;;;;;;;;;;4964622;28;20055;-73
2022/06/07 01:42:32;;;;;;;17.15;5.90;;;;;;;;;;4960459;28;20043;-73
2022/06/07 01:44:58;;;;;;;16.48;5.90;;;;;;;;;;4960630;28;20042;-73
2022/06/07 01:47:28;;;;;;;15.88;6.53;;;;;;;;;;4969856;28;20062;-73
2022/06/07 01:49:54;;;;;;;22.02;7.07;;;;;;;;;;4961903;28;20117;-74
2022/06/07 01:52:23;;;;;;;16.63;6.47;;;;;;;;;;4964466;28;20411;-73
2022/06/07 01:54:51;;;;;;;14.25;6.65;;;;;;;;;;4964501;28;20047;-74
2022/06/07 01:57:18;;;;;;;16.75;6.18;;;;;;;;;;4965098;28;20047;-72
2022/06/07 01:59:44;;;;;;;20.17;6.30;;;;;;;;;;4966766;28;20062;-74
2022/06/07 02:02:10;;;;;;;16.65;6.60;;;;;;;;;;4963003;28;20051;-74
2022/06/07 02:04:40;;;;;;;13.68;6.07;;;;;;;;;;4962527;28;20062;-74
2022/06/07 02:07:07;;;;;;;19.42;6.32;;;;;;;;;;4965111;28;20055;-74
2022/06/07 02:09:34;;;;;;;12.27;6.20;;;;;;;;;;4968507;28;20050;-75
2022/06/07 02:12:00;;;;;;;16.15;6.65;;;;;;;;;;4966023;28;20046;-75
2022/06/07 02:14:27;;;;;;;20.15;6.40;;;;;;;;;;4962488;28;20039;-73
2022/06/07 02:16:53;;;;;;;17.98;6.38;;;;;;;;;;4962260;28;20043;-73
2022/06/07 02:19:19;;;;;;;19.98;6.50;;;;;;;;;;4964213;28;20678;-74
2022/06/07 02:21:45;;;;;;;18.20;6.35;;;;;;;;;;4961223;28;20047;-75
2022/06/07 02:24:11;;;;;;;16.42;6.53;;;;;;;;;;4962267;28;20053;-75
2022/06/07 02:26:45;;;;;;;14.43;6.30;;;;;;;;;;4958866;28;20416;-73
2022/06/07 02:29:39;;;;;;;15.10;5.95;;;;;;;;;;4962764;28;20065;-74
2022/06/07 02:32:09;;;;;;;;;;;;;;;;;;4962045;28;20472;-74
2022/06/07 02:34:37;;;;;;;15.60;6.50;;;;;;;;;;4962188;28;20390;-72
2022/06/07 02:37:05;;;;;;;14.68;6.25;;;;;;;;;;4963252;28;20047;-74
2022/06/07 02:39:32;;;;;;;16.75;6.75;;;;;;;;;;4968587;28;20073;-73
2022/06/07 02:42:01;;;;;;;19.58;7.03;;;;;;;;;;4964499;28;20481;-72
2022/06/07 02:44:27;;;;;;;18.77;6.88;;;;;;;;;;4960021;28;20101;-75
2022/06/07 02:46:53;;;;;;;13.80;6.45;;;;;;;;;;4963200;28;20051;-74
2022/06/07 02:49:19;;;;;;;14.75;6.50;;;;;;;;;;4966243;28;20061;-73
2022/06/07 02:51:45;;;;;;;17.88;7.35;;;;;;;;;;4967203;28;20051;-75
2022/06/07 02:54:12;;;;;;;15.73;7.03;;;;;;;;;;4963754;28;20051;-75
2022/06/07 02:56:38;;;;;;;18.20;8.43;;;;;;;;;;4965280;28;20058;-74
2022/06/07 02:59:03;;;;;;;18.38;8.75;;;;;;;;;;4964411;28;20084;-74
2022/06/07 03:01:29;;;;;;;22.02;9.07;;;;;;;;;;4961543;28;20047;-71
2022/06/07 03:03:58;;;;;;;20.15;9.32;;;;;;;;;;4964012;28;20549;-74
2022/06/07 03:06:24;;;;;;;22.80;9.65;;;;;;;;;;4960177;28;20054;-72
2022/06/07 03:08:50;;;;;;;28.08;10.48;;;;;;;;;;4963847;28;20046;-75
2022/06/07 03:11:16;;;;;;;22.77;10.30;;;;;;;;;;4966631;28;20051;-73
2022/06/07 03:13:46;;;;;;;27.52;9.50;;;;;;;;;;4960265;28;21226;-74
2022/06/07 03:16:13;;;;;;;27.02;9.55;;;;;;;;;;4965684;28;20051;-73
2022/06/07 03:18:39;;;;;;;24.17;8.80;;;;;;;;;;4964540;28;20101;-72
2022/06/07 03:21:04;;;;;;;32.03;8.32;;;;;;;;;;4966662;28;20086;-73
2022/06/07 03:23:31;;;;;;;31.60;7.85;;;;;;;;;;4968349;28;20046;-74
2022/06/07 03:26:08;;;;;;;18.48;8.48;;;;;;;;;;4960887;28;20050;-74
2022/06/07 03:28:34;;;;;;;24.33;9.43;;;;;;;;;;4962745;28;20061;-73
2022/06/07 03:31:12;;;;;;;23.13;8.98;;;;;;;;;;4961283;28;20242;-75
2022/06/07 03:33:39;;;;;;;21.52;7.82;;;;;;;;;;4961667;28;20043;-74
2022/06/07 03:36:09;;;;;;;20.92;8.35;;;;;;;;;;4964490;28;20517;-74
2022/06/07 03:38:35;;;;;;;19.80;8.00;;;;;;;;;;4963488;28;20082;-74
2022/06/07 03:41:01;;;;;;;20.02;7.85;;;;;;;;;;4965871;28;20055;-72
2022/06/07 03:43:27;;;;;;;18.02;7.40;;;;;;;;;;4965990;28;20054;-73
2022/06/07 03:45:53;;;;;;;17.13;7.88;;;;;;;;;;4965394;28;20053;-73
2022/06/07 03:48:19;;;;;;;19.95;7.82;;;;;;;;;;4963993;28;20054;-74
2022/06/07 03:50:45;;;;;;;12.73;6.88;;;;;;;;;;4964683;28;20055;-73
2022/06/07 03:53:11;;;;;;;16.40;7.13;;;;;;;;;;4964069;28;20472;-76
2022/06/07 03:55:42;;;;;;;20.40;7.22;;;;;;;;;;4963326;28;20053;-75
2022/06/07 03:58:10;;;;;;;15.27;6.82;;;;;;;;;;4964546;28;20259;-74
2022/06/07 04:00:36;;;;;;;14.02;6.28;;;;;;;;;;4960526;28;20058;-74
2022/06/07 04:03:02;;;;;;;18.63;6.90;;;;;;;;;;4961314;28;20116;-74
2022/06/07 04:05:28;;;;;;;17.60;6.45;;;;;;;;;;4958784;28;20054;-74
2022/06/07 04:08:12;;;;;;;17.45;6.35;;;;;;;;;;4960439;28;20064;-74
2022/06/07 04:11:04;;;;;;;;;;;;;;;;;;4958805;28;20070;-77
2022/06/07 04:13:32;;;;;;;17.63;6.00;;;;;;;;;;4958444;28;19921;-74
2022/06/07 04:15:58;;;;;;;16.75;6.60;;;;;;;;;;4958162;28;20055;-75
2022/06/07 04:18:24;;;;;;;22.77;7.07;;;;;;;;;;4963992;28;20131;-74
2022/06/07 04:20:49;;;;;;;19.75;6.47;;;;;;;;;;4963826;28;20047;-74
2022/06/07 04:23:19;;;;;;;20.58;6.90;;;;;;;;;;4964254;28;20058;-73
2022/06/07 04:25:45;;;;;;;16.25;7.13;;;;;;;;;;4963717;28;20050;-73
2022/06/07 04:28:12;;;;;;;20.38;7.45;;;;;;;;;;4961048;28;20074;-74
2022/06/07 04:30:42;;;;;;;16.63;6.97;;;;;;;;;;4961821;28;20400;-74
2022/06/07 04:33:08;;;;;;;18.52;7.07;;;;;;;;;;4963539;28;20051;-72
2022/06/07 04:35:33;;;;;;;19.95;8.05;;;;;;;;;;4963147;28;20101;-73
2022/06/07 04:38:00;;;;;;;23.48;6.72;;;;;;;;;;4963810;28;20051;-76
2022/06/07 04:40:26;;;;;;;15.60;6.88;;;;;;;;;;4962819;28;20043;-68
2022/06/07 04:42:52;;;;;;;14.85;6.97;;;;;;;;;;4966163;28;20303;-67
2022/06/07 04:45:18;;;;;;;19.83;6.03;;;;;;;;;;4962185;28;20054;-70
2022/06/07 04:47:45;;;;;;;17.55;6.82;;;;;;;;;;4966728;28;20061;-69
2022/06/07 04:50:15;;;;;;;22.20;6.60;;;;;;;;;;4967726;28;20047;-71
2022/06/07 04:52:43;;;;;;;16.67;7.22;;;;;;;;;;4963559;28;20452;-67
2022/06/07 04:55:10;;;;;;;19.10;6.50;;;;;;;;;;4962113;28;20055;-68
2022/06/07 04:57:36;;;;;;;21.27;6.45;;;;;;;;;;4966718;28;20077;-67
2022/06/07 05:00:05;;;;;;;14.90;7.05;;;;;;;;;;4965591;28;20061;-67
2022/06/07 05:02:30;;;;;;;13.52;6.60;;;;;;;;;;4960056;28;20058;-69
2022/06/07 05:04:56;;;;;;;19.00;7.15;;;;;;;;;;4963036;28;20046;-68
2022/06/07 05:07:22;;;;;;;18.80;6.22;;;;;;;;;;4961774;28;20472;-69
2022/06/07 05:09:48;;;;;;;19.73;6.70;;;;;;;;;;4962680;28;20417;-67
2022/06/07 05:12:15;;;;;;;19.40;7.00;;;;;;;;;;4963864;28;20051;-68
2022/06/07 05:14:44;;;;;;;17.38;6.75;;;;;;;;;;4943393;28;20381;-69
2022/06/07 05:17:10;;;;;;;15.95;6.28;;;;;;;;;;4943302;28;20511;-67
2022/06/07 05:19:37;;;;;;;17.85;7.25;;;;;;;;;;4961501;28;20053;-71
2022/06/07 05:22:03;;;;;;;18.75;6.97;;;;;;;;;;4961385;28;20456;-70
2022/06/07 05:24:29;;;;;;;16.10;6.57;;;;;;;;;;4966029;28;20488;-68
2022/06/07 05:26:58;;;;;;;17.02;6.22;;;;;;;;;;4966492;28;20039;-69
2022/06/07 05:29:28;;;;;;;20.90;6.43;;;;;;;;;;4961244;28;20062;-68
2022/06/07 05:31:55;;;;;;;13.90;5.65;;;;;;;;;;4960902;28;20580;-71
2022/06/07 05:34:21;;;;;;;16.20;6.68;;;;;;;;;;4961689;28;20057;-69
2022/06/07 05:36:47;;;;;;;14.50;6.70;;;;;;;;;;4960918;28;20058;-74
2022/06/07 05:39:33;;;;;;;19.58;6.45;;;;;;;;;;4962274;28;20059;-69
2022/06/07 05:42:00;;;;;;;17.90;6.35;;;;;;;;;;4961400;28;20054;-69
2022/06/07 05:44:27;;;;;;;18.98;6.55;;;;;;;;;;4959646;28;20066;-69
2022/06/07 05:46:53;;;;;;;19.60;6.72;;;;;;;;;;4958872;28;20046;-70
2022/06/07 05:49:19;;;;;;;22.58;7.07;;;;;;;;;;4964667;28;20054;-69
2022/06/07 05:51:46;;;;;;;19.33;6.63;;;;;;;;;;4957284;28;20054;-76
2022/06/07 05:54:13;;;;;;;20.60;5.95;;;;;;;;;;4960543;28;20042;-77
2022/06/07 05:56:39;;;;;;;15.23;6.45;;;;;;;;;;4963067;28;20397;-75
2022/06/07 05:59:05;;;;;;;24.63;6.82;;;;;;;;;;4960145;28;20355;-75
2022/06/07 06:01:32;;;;;;;17.10;5.90;;;;;;;;;;4957887;28;20057;-75
2022/06/07 06:03:58;;;;;;;15.77;6.25;;;;;;;;;;4960533;28;20077;-74
2022/06/07 06:06:25;;;;;;;15.63;5.78;;;;;;;;;;4966376;28;20042;-76
2022/06/07 06:11:36;;;;;;;13.43;6.00;;;;;;;;;;4960963;28;20517;-70
2022/06/07 06:14:03;;;;;;;17.73;6.47;;;;;;;;;;4961092;28;20065;-68
2022/06/07 06:16:30;;;;;;;17.77;6.43;;;;;;;;;;4961646;28;20049;-72
2022/06/07 06:18:58;;;;;;;14.30;6.15;;;;;;;;;;4954604;28;20292;-72
2022/06/07 06:21:27;;;;;;;21.80;6.93;;;;;;;;;;4966653;28;20449;-70
2022/06/07 06:23:53;;;;;;;22.60;6.80;;;;;;;;;;4964193;28;20054;-74
2022/06/07 06:26:20;;;;;;;13.48;6.10;;;;;;;;;;4964575;28;20055;-72
2022/06/07 06:28:46;;;;;;;14.38;5.20;;;;;;;;;;4965324;28;20489;-70
2022/06/07 06:31:13;;;;;;;13.65;4.68;;;;;;;;;;4956153;28;20050;-72
2022/06/07 06:33:41;;;;;;;11.23;4.25;;;;;;;;;;4962273;28;20527;-71
2022/06/07 06:36:09;;;;;;;15.23;4.72;;;;;;;;;;4963980;28;20133;-70
2022/06/07 06:38:36;;;;;;;14.10;4.13;;;;;;;;;;4963825;28;20172;-72
2022/06/07 06:41:14;;;;;;;12.65;4.00;;;;;;;;;;4964065;28;20051;-70
2022/06/07 06:43:41;;;;;;;14.02;4.18;;;;;;;;;;4962794;28;20062;-69
2022/06/07 06:46:12;;;;;;;10.68;3.97;;;;;;;;;;4957978;28;20058;-75
2022/06/07 06:48:39;;;;;;;12.63;4.15;;;;;;;;;;4960371;28;20054;-67
2022/06/07 06:51:10;;;;;;;17.48;4.40;;;;;;;;;;4961756;28;20046;-73
2022/06/07 06:53:37;;;;;;;13.52;4.28;;;;;;;;;;4964386;28;20498;-72
2022/06/07 06:56:04;;;;;;;13.05;4.60;;;;;;;;;;4961964;28;20268;-72
2022/06/07 06:58:30;;;;;;;14.60;4.82;;;;;;;;;;4963285;28;20286;-73
2022/06/07 07:01:28;;;;;;;16.00;4.85;;;;;;;;;;4962223;28;20486;-68
2022/06/07 07:03:55;;;;;;;13.63;3.92;;;;;;;;;;4962196;28;20057;-68
2022/06/07 07:06:22;;;;;;;11.45;4.32;;;;;;;;;;4964845;28;20058;-68
2022/06/07 07:08:48;;;;;;;22.90;5.47;;;;;;;;;;4962715;28;20058;-71
2022/06/07 07:11:31;;;;;;;16.70;5.47;;;;;;;;;;4957061;28;20135;-69
2022/06/07 07:13:58;;;;;;;11.82;4.60;;;;;;;;;;4955944;28;20138;-70
2022/06/07 07:16:27;;;;;;;11.70;5.15;;;;;;;;;;4959735;28;20454;-70
2022/06/07 07:18:53;;;;;;;16.27;5.80;;;;;;;;;;4956935;28;20051;-72
2022/06/07 07:21:26;;;;;;;12.10;5.20;;;;;;;;;;4959901;28;20128;-72
2022/06/07 07:23:52;;;;;;;14.60;6.53;;;;;;;;;;4958644;28;20117;-69
2022/06/07 07:26:23;;;;;;;17.30;6.38;;;;;;;;;;4957980;28;20513;-72
2022/06/07 07:28:50;;;;;;;16.27;6.93;;;;;;;;;;4956677;28;20424;-76
2022/06/07 07:31:21;;;;;;;24.73;8.55;;;;;;;;;;4958444;28;20067;-73
2022/06/07 07:33:47;;;;;;;23.67;6.45;;;;;;;;;;4954312;28;20042;-73
2022/06/07 07:36:13;;;;;;;18.40;6.22;;;;;;;;;;4958617;28;20050;-73
2022/06/07 07:38:41;;;;;;;17.60;5.68;;;;;;;;;;4961364;28;20248;-73
2022/06/07 07:41:23;;;;;;;16.13;5.35;;;;;;;;;;4956898;28;20527;-73
2022/06/07 07:43:51;;;;;;;16.20;4.75;;;;;;;;;;4956142;28;20046;-72
2022/06/07 07:46:19;;;;;;;14.02;4.70;;;;;;;;;;4960363;28;20578;-72
2022/06/07 07:48:46;;;;;;;16.10;5.00;;;;;;;;;;4961047;28;20113;-73
2022/06/07 07:51:27;;;;;;;14.07;4.80;;;;;;;;;;4961874;28;20090;-73
2022/06/07 07:53:55;;;;;;;18.38;5.57;;;;;;;;;;4965057;28;20459;-72
2022/06/07 07:56:22;;;;;;;14.30;5.22;;;;;;;;;;4964269;28;20624;-74
2022/06/07 07:58:48;;;;;;;18.50;5.97;;;;;;;;;;4964017;28;20073;-76
2022/06/07 08:01:17;;;;;;;18.73;5.95;;;;;;;;;;4960183;28;20884;-74
2022/06/07 08:03:44;;;;;;;17.60;6.32;;;;;;;;;;4961759;28;20809;-76
2022/06/07 08:06:18;;;;;;;20.38;7.05;;;;;;;;;;4965306;28;20584;-76
2022/06/07 08:08:46;;;;;;;15.27;6.25;;;;;;;;;;4964534;28;20108;-74
2022/06/07 08:11:13;;;;;;;21.55;7.47;;;;;;;;;;4963586;28;20051;-78
2022/06/07 08:13:39;;;;;;;24.77;7.07;;;;;;;;;;4965044;28;20050;-73
2022/06/07 08:16:06;;;;;;;20.88;7.55;;;;;;;;;;4959192;28;20042;-72
2022/06/07 08:18:33;;;;;;;23.25;9.00;;;;;;;;;;4962319;28;20073;-75
2022/06/07 08:21:02;;;;;;;27.30;9.30;;;;;;;;;;4958338;28;20055;-76
2022/06/07 08:23:28;;;;;;;23.98;8.65;;;;;;;;;;4959577;28;24058;-73
2022/06/07 08:25:58;;;;;;;22.00;8.57;;;;;;;;;;4959821;28;20530;-74
2022/06/07 08:28:24;;;;;;;24.05;8.30;;;;;;;;;;4969295;28;20066;-79
2022/06/07 08:30:51;;;;;;;28.30;7.38;;;;;;;;;;4965947;28;20057;-72
2022/06/07 08:38:55;;;;;;;16.77;7.00;;;;;;;;;;4967440;28;20074;-73
2022/06/07 08:41:27;;;;;;;15.95;6.38;;;;;;;;;;4966761;28;20066;-74
2022/06/07 08:43:59;;;;;;;17.20;6.43;;;;;;;;;;4960454;28;20705;-74
2022/06/07 08:46:30;;;;;;;19.88;6.50;;;;;;;;;;4965879;28;20061;-72
2022/06/07 08:48:56;;;;;;;24.40;7.15;;;;;;;;;;4966683;28;20570;-72
2022/06/07 08:51:28;;;;;;;19.38;6.82;;;;;;;;;;4964359;28;20142;-72
2022/06/07 08:53:58;;;;;;;19.42;7.35;;;;;;;;;;4966586;28;20054;-71
2022/06/07 08:56:32;;;;;;;20.27;6.75;;;;;;;;;;4965912;28;20066;-72
2022/06/07 08:59:05;;;;;;;20.70;8.23;;;;;;;;;;4964057;28;20431;-73
2022/06/07 09:01:51;;;;;;;21.35;8.77;;;;;;;;;;4965339;28;20083;-72
2022/06/07 09:04:22;;;;;;;19.98;8.15;;;;;;;;;;4964052;28;20117;-72
2022/06/07 09:07:03;;;;;;;20.38;7.68;;;;;;;;;;4959879;28;20051;-73
2022/06/07 09:12:30;;;;;;;20.05;6.63;;;;;;;;;;4961045;28;26629;-73
2022/06/07 09:14:59;;;;;;;15.48;5.32;;;;;;;;;;4955750;28;20043;-73
2022/06/07 09:17:33;;;;;;;20.92;5.25;;;;;;;;;;4961508;28;20053;-71
2022/06/07 09:20:00;;;;;;;13.77;4.97;;;;;;;;;;4963956;28;20055;-73
2022/06/07 09:23:00;;;;;;;14.85;5.13;;;;;;;;;;4961806;28;20939;-73
2022/06/07 09:25:38;;;;;;;13.50;3.92;;;;;;;;;;4959989;28;20047;-70
2022/06/07 09:28:10;;;;;;;11.77;3.95;;;;;;;;;;4962180;28;20043;-72
2022/06/07 09:30:43;;;;;;;15.02;4.22;;;;;;;;;;4956625;28;20062;-72
2022/06/07 09:33:24;;;;;;;13.27;3.88;;;;;;;;;;4959328;28;20485;-72
2022/06/07 09:35:52;;;;;;;11.15;3.83;;;;;;;;;;4963228;28;20093;-72
2022/06/07 09:38:34;;;;;;;14.45;4.50;;;;;;;;;;4965864;28;20078;-74
2022/06/07 09:41:38;;;;;;;12.52;3.85;;;;;;;;;;4967004;28;20059;-74
2022/06/07 09:44:23;;;;;;;13.00;4.90;;;;;;;;;;4952366;28;20047;-72
2022/06/07 09:47:14;;;;;;;13.07;3.97;;;;;;;;;;4958580;28;20061;-73
2022/06/07 09:49:45;;;;;;;12.55;3.47;;;;;;;;;;4962901;28;20066;-69
2022/06/07 09:52:20;;;;;;;16.50;3.90;;;;;;;;;;4957897;28;20082;-74
2022/06/07 09:54:48;;;;;;;15.80;4.28;;;;;;;;;;4964271;28;20050;-71
2022/06/07 09:57:21;;;;;;;15.10;3.97;;;;;;;;;;4963006;28;20055;-72
2022/06/07 09:59:55;;;;;;;13.75;3.35;;;;;;;;;;4963262;28;20062;-73
2022/06/07 10:02:33;;;;;;;16.30;3.85;;;;;;;;;;4963723;28;20157;-73
2022/06/07 10:05:17;;;;;;;11.63;3.50;;;;;;;;;;4961457;28;20047;-75
2022/06/07 10:08:01;;;;;;;13.75;3.92;;;;;;;;;;4965059;28;20636;-74
2022/06/07 10:10:45;;;;;;;19.30;4.82;;;;;;;;;;4963278;28;20767;-74
2022/06/07 10:13:46;;;;;;;13.85;4.13;;;;;;;;;;4963935;28;20149;-75
2022/06/07 10:16:26;;;;;;;23.02;9.13;;;;;;;;;;4976329;28;20047;-74
2022/06/07 10:19:08;;;;;;;18.08;5.03;;;;;;;;;;4965200;28;20171;-74
2022/06/07 10:21:45;;;;;;;20.23;6.03;;;;;;;;;;4965146;28;20043;-75
2022/06/07 10:24:32;;;;;;;29.13;8.48;;;;;;;;;;4964006;28;20043;-74
2022/06/07 10:27:23;;;;;;;21.80;7.05;;;;;;;;;;4958333;28;20043;-74
2022/06/07 10:30:10;;;;;;;20.05;6.43;;;;;;;;;;4964747;28;20142;-75
2022/06/07 10:32:51;;;;;;;14.05;4.32;;;;;;;;;;4961728;28;20097;-74
2022/06/07 10:35:27;;;;;;;13.70;3.67;;;;;;;;;;4963002;28;20047;-72
2022/06/07 10:38:25;;;;;;;15.07;4.18;;;;;;;;;;4960778;28;20136;-78
2022/06/07 10:41:04;;;;;;;17.25;3.55;;;;;;;;;;4918796;29;20189;-74
2022/06/07 10:43:33;;;;;;;16.85;4.50;;;;;;;;;;4921480;29;20044;-77
2022/06/07 10:46:00;;;;;;;17.75;4.70;;;;;;;;;;4914194;29;20052;-74
2022/06/07 10:48:54;;;;;;;13.45;4.47;;;;;;;;;;4915906;29;20059;-74
2022/06/07 10:54:46;;;;;;;12.45;3.50;;;;;;;;;;4917709;29;20154;-71
2022/06/07 10:57:19;;;;;;;14.43;4.13;;;;;;;;;;4913825;29;20104;-71
2022/06/07 10:59:45;;;;;;;17.75;4.78;;;;;;;;;;4917079;29;20068;-71
2022/06/07 11:02:38;;;;;;;14.75;3.88;;;;;;;;;;4921681;29;20345;-74
2022/06/07 11:10:59;;;;;;;15.13;4.07;;;;;;;;;;4919804;29;20062;-73
2022/06/07 11:13:43;;;;;;;12.27;3.33;;;;;;;;;;4919061;29;20051;-73
2022/06/07 11:17:03;;;;;;;15.10;3.65;;;;;;;;;;4933028;28;20171;-76
2022/06/07 11:19:31;;;;;;;13.05;3.42;;;;;;;;;;4941882;28;20142;-76
2022/06/07 11:22:02;;;;;;;18.10;3.83;;;;;;;;;;4941312;28;20055;-73
2022/06/07 11:24:34;;;;;;;13.90;3.33;;;;;;;;;;4943678;28;20066;-73
2022/06/07 11:27:03;;;;;;;13.00;3.30;;;;;;;;;;4925617;29;20519;-71
2022/06/07 11:29:33;;;;;;;11.65;3.55;;;;;;;;;;4949173;28;20067;-77
2022/06/07 11:32:02;;;;;;;13.40;3.58;;;;;;;;;;4946856;29;20046;-75
2022/06/07 11:34:30;;;;;;;12.30;3.70;;;;;;;;;;4941915;28;20054;-76
2022/06/07 11:37:07;;;;;;;15.55;3.40;;;;;;;;;;4940776;28;20051;-75
2022/06/07 11:39:39;;;;;;;9.02;3.05;;;;;;;;;;4944229;28;20174;-74
2022/06/07 11:42:11;;;;;;;18.58;3.42;;;;;;;;;;4943194;28;20131;-75
2022/06/07 11:44:39;;;;;;;12.70;3.15;;;;;;;;;;4940405;28;20061;-75
2022/06/07 11:47:11;;;;;;;10.90;3.35;;;;;;;;;;4943169;28;20047;-72
2022/06/07 11:49:57;;;;;;;13.88;3.72;;;;;;;;;;4943577;28;20059;-75
2022/06/07 11:52:34;;;;;;;10.55;3.25;;;;;;;;;;4941890;28;20043;-72
2022/06/07 11:55:14;;;;;;;12.80;3.20;;;;;;;;;;4941419;28;20524;-73
2022/06/07 11:58:07;;;;;;;9.95;3.05;;;;;;;;;;4942622;28;20133;-75
2022/06/07 12:00:41;;;;;;;12.10;3.15;;;;;;;;;;4948243;28;20058;-76
2022/06/07 12:03:10;;;;;;;10.93;3.42;;;;;;;;;;4944546;28;20043;-76
2022/06/07 12:05:46;;;;;;;18.35;3.65;;;;;;;;;;4940750;28;20051;-74
2022/06/07 12:08:29;;;;;;;12.90;2.88;;;;;;;;;;4942404;28;20457;-75
2022/06/07 12:11:20;;;;;;;12.20;3.33;;;;;;;;;;4939919;28;20086;-74
2022/06/07 12:14:09;;;;;;;15.57;3.05;;;;;;;;;;4954030;28;20142;-75
2022/06/07 12:16:37;;;;;;;14.85;3.92;;;;;;;;;;4957045;28;20113;-72
2022/06/07 12:19:06;;;;;;;11.75;3.65;;;;;;;;;;4962513;28;20061;-74
2022/06/07 12:21:41;;;;;;;10.10;2.90;;;;;;;;;;4963134;28;20101;-77
2022/06/07 12:24:16;;;;;;;12.52;3.38;;;;;;;;;;4961725;28;20417;-74
2022/06/07 12:26:47;;;;;;;13.40;2.88;;;;;;;;;;4962845;28;20059;-74
2022/06/07 12:29:24;;;;;;;10.40;3.35;;;;;;;;;;4964443;28;20058;-76
2022/06/07 12:31:53;;;;;;;12.73;4.28;;;;;;;;;;4964896;28;20254;-78
2022/06/07 12:34:29;;;;;;;19.75;4.85;;;;;;;;;;4969520;28;20442;-74
2022/06/07 12:37:26;;;;;;;17.45;3.90;;;;;;;;;;4976077;28;20073;-77
2022/06/07 12:39:58;;;;;;;9.85;3.10;;;;;;;;;;4974585;28;20125;-75
2022/06/07 12:42:28;;;;;;;14.57;4.13;;;;;;;;;;4964570;28;20051;-76
2022/06/07 12:45:37;;;;;;;8.95;3.50;;;;;;;;;;4965151;28;20043;-73
2022/06/07 12:48:14;;;;;;;11.73;3.40;;;;;;;;;;4883099;29;20502;-76
2022/06/07 12:50:42;;;;;;;16.58;3.47;;;;;;;;;;4886511;29;20072;-74
2022/06/07 12:53:21;;;;;;;16.35;4.20;;;;;;;;;;4873181;29;20546;-71
2022/06/07 12:56:02;;;;;;;10.68;3.25;;;;;;;;;;4882509;29;20049;-74
2022/06/07 12:58:34;;;;;;;14.48;3.17;;;;;;;;;;4884295;29;20060;-71
2022/06/07 13:01:01;;;;;;;10.25;3.17;;;;;;;;;;4886067;29;20471;-72
2022/06/07 13:03:34;;;;;;;12.85;3.20;;;;;;;;;;4869201;29;20053;-74
2022/06/07 13:06:04;;;;;;;8.10;2.95;;;;;;;;;;4887700;29;20536;-72
2022/06/07 13:08:39;;;;;;;11.60;2.95;;;;;;;;;;4886099;29;20044;-73
2022/06/07 13:11:10;;;;;;;9.75;3.00;;;;;;;;;;4884915;29;20076;-74
2022/06/07 13:13:39;;;;;;;13.57;3.72;;;;;;;;;;4890356;29;20067;-73
2022/06/07 13:16:08;;;;;;;12.93;3.30;;;;;;;;;;4891674;29;20237;-73
2022/06/07 13:18:42;;;;;;;10.57;2.80;;;;;;;;;;4917485;28;20047;-73
2022/06/07 13:21:17;;;;;;;9.90;2.55;;;;;;;;;;4966940;28;20452;-73
2022/06/07 13:23:45;;;;;;;11.35;2.83;;;;;;;;;;4967705;28;20050;-74
2022/06/07 13:26:23;;;;;;;12.15;3.15;;;;;;;;;;4963827;28;20428;-74
2022/06/07 13:29:19;;;;;;;11.85;3.30;;;;;;;;;;4968388;28;20057;-77
2022/06/07 13:31:53;;;;;;;10.80;2.85;;;;;;;;;;4968285;28;20129;-78
2022/06/07 13:34:27;;;;;;;10.63;2.85;;;;;;;;;;4965179;28;20866;-74
2022/06/07 13:37:03;;;;;;;13.38;3.58;;;;;;;;;;4968153;28;20265;-76
2022/06/07 13:39:29;;;;;;;13.60;3.10;;;;;;;;;;4968648;28;20070;-74
2022/06/07 13:42:42;;;;;;;13.43;3.53;;;;;;;;;;4968238;28;20107;-76
2022/06/07 13:45:11;;;;;;;12.52;3.13;;;;;;;;;;4961784;28;20070;-74
2022/06/07 13:47:46;;;;;;;13.60;3.53;;;;;;;;;;4968841;28;20352;-77
2022/06/07 13:53:21;;;;;;;9.32;2.72;;;;;;;;;;4964141;28;20058;-76
2022/06/07 13:55:50;;;;;;;12.02;3.08;;;;;;;;;;4963868;28;20106;-75
2022/06/07 13:58:19;;;;;;;13.10;3.03;;;;;;;;;;4966916;28;20046;-75
2022/06/07 14:00:46;;;;;;;10.90;2.92;;;;;;;;;;4970758;28;20039;-74
2022/06/07 14:03:18;;;;;;;11.05;3.15;;;;;;;;;;4964336;28;20109;-76
2022/06/07 14:05:44;;;;;;;12.68;3.17;;;;;;;;;;4965941;28;20046;-77
2022/06/07 14:08:14;;;;;;;8.45;2.83;;;;;;;;;;4969538;28;20073;-76
2022/06/07 14:10:42;;;;;;;10.32;3.00;;;;;;;;;;4968392;28;20051;-75
2022/06/07 14:13:08;;;;;;;9.32;2.70;;;;;;;;;;4965562;28;20089;-75
2022/06/07 14:15:34;;;;;;;12.25;3.08;;;;;;;;;;4967497;28;20074;-78
2022/06/07 14:18:02;;;;;;;15.93;3.53;;;;;;;;;;4964835;28;20081;-71
2022/06/07 14:20:33;;;;;;;12.13;3.03;;;;;;;;;;4963351;28;20055;-72
2022/06/07 14:22:59;;;;;;;10.80;3.83;;;;;;;;;;4962655;28;20117;-71
2022/06/07 14:25:27;;;;;;;11.50;3.45;;;;;;;;;;4963876;28;20551;-74
2022/06/07 14:27:54;;;;;;;10.70;3.20;;;;;;;;;;4959925;28;20055;-72
2022/06/07 14:30:21;;;;;;;10.07;2.95;;;;;;;;;;4964200;28;20090;-75
2022/06/07 14:32:52;;;;;;;9.70;3.13;;;;;;;;;;4963656;28;20082;-71
2022/06/07 14:35:24;;;;;;;15.40;3.63;;;;;;;;;;4963209;28;20411;-73
2022/06/07 14:37:51;;;;;;;12.70;2.83;;;;;;;;;;4960976;28;20133;-75
2022/06/07 14:40:20;;;;;;;12.13;3.05;;;;;;;;;;4963087;28;20077;-76
2022/06/07 14:42:47;;;;;;;12.80;3.22;;;;;;;;;;4968908;28;20062;-77
2022/06/07 14:45:15;;;;;;;10.55;3.30;;;;;;;;;;4965865;28;20049;-74
2022/06/07 14:47:43;;;;;;;16.73;3.80;;;;;;;;;;4963839;28;20133;-75
2022/06/07 14:50:17;;;;;;;8.48;3.13;;;;;;;;;;4963746;28;20134;-75
2022/06/07 14:52:47;;;;;;;14.93;3.92;;;;;;;;;;4979482;28;20043;-73
2022/06/07 14:55:17;;;;;;;13.77;3.35;;;;;;;;;;4965746;28;20473;-75
2022/06/07 14:57:47;;;;;;;10.32;3.20;;;;;;;;;;4961830;28;20046;-73
2022/06/07 15:00:18;;;;;;;11.93;3.70;;;;;;;;;;4963189;28;20120;-76
2022/06/07 15:02:48;;;;;;;11.27;3.10;;;;;;;;;;4960354;28;20085;-72
2022/06/07 15:05:20;;;;;;;11.35;3.20;;;;;;;;;;4961605;28;20054;-76
2022/06/07 15:08:00;;;;;;;11.35;3.33;;;;;;;;;;4960800;28;20062;-72
2022/06/07 15:10:29;;;;;;;11.05;3.50;;;;;;;;;;4962539;28;20119;-72
2022/06/07 15:12:56;;;;;;;9.32;3.28;;;;;;;;;;4960204;28;20109;-75
2022/06/07 15:15:24;;;;;;;12.52;3.15;;;;;;;;;;4961175;28;20393;-72
2022/06/07 15:17:54;;;;;;;14.38;3.70;;;;;;;;;;4959297;28;20051;-76
2022/06/07 15:20:31;;;;;;;12.38;2.97;;;;;;;;;;4965664;28;20114;-72
2022/06/07 15:22:59;;;;;;;19.48;3.72;;;;;;;;;;4967741;28;20054;-76
2022/06/07 15:25:27;;;;;;;19.63;3.58;;;;;;;;;;4964989;28;20082;-78